Thunderstorms From: 26-05-2018 21:24 Until: 27-05-2018 15:00 warning for: Thunderstorms Level: Yellow info button

Although rather usual in this region, locally or potentially dangerous phenomena are expected. (such as local winds, summer thunderstorms, rising streams or high waves) Be aware and pay attention to the latest weather updates, especially if you carry out activities exposed to weather or close to a stream or shoreline. 


Meteo18 Weather Cam more information Meteo18 Weather Cam


warning for Thunderstorms more information blitzortung!


Rain radar more information rain snow radar


Visit our other weather sites:

Template documentation
and downloads

And another site



Weather Underground History page Text

Daily Summary for June 15, 2016 Units:  Metric    English   Both
« Previous Day
Next Day »
Daily Weekly Monthly Yearly Custom
  High: Low: Average:
Temperature: -17.8 °C -11.5 °C -9.6 °C
Dew Point: -17.8 °C -11.8 °C -10.9 °C
Humidity: Humidity % 56 % 87 %
Wind Speed: 0 km/h 0 km/h 2.4 km/h
Wind Gust: 0 km/h - -
Wind:- - WSW
Pressure: 0 hPa 33843.1 hPa -
Precipitation: 297.18 mm    
Historical Graphs
 
 
Tabular Data for June 15, 2016
Time Temperature Dew Point Pressure Wind Wind Speed Wind Gust Humidity Rainfall Rate (Hourly)
-17.8 °C -17.8 °C 0 hPa Calm     Humidity % 0 mm
00:02 -10.9 °C -11.2 °C 33914.2 hPa Calm     97 % 7.62 mm
00:07 -10.8 °C -11.1 °C 33914.2 hPa Calm     97 % 7.62 mm
00:12 -10.8 °C -11.1 °C 33914.2 hPa Calm     97 % 7.62 mm
00:17 -10.8 °C -11.1 °C 33914.2 hPa Calm     97 % 12.7 mm
00:22 -10.7 °C -11 °C 33914.2 hPa Calm   2.6 km/h 97 % 12.7 mm
00:32 -10.7 °C -10.9 °C 33900.6 hPa Calm   2.6 km/h 97 % 12.7 mm
00:42 -10.7 °C -10.9 °C 33900.6 hPa SSW 5.1 km/h 5.1 km/h 97 % 12.7 mm
00:47 -10.7 °C -10.9 °C 33900.6 hPa Calm   5.1 km/h 97 % 12.7 mm
00:52 -10.7 °C -10.9 °C 33900.6 hPa WSW 2.6 km/h 15.6 km/h 97 % 12.7 mm
00:57 -10.7 °C -10.9 °C 33900.6 hPa Calm   15.6 km/h 97 % 12.7 mm
01:02 -10.7 °C -11.1 °C 33900.6 hPa WSW 2.6 km/h 15.6 km/h 96 % 12.7 mm
01:07 -10.8 °C -11.1 °C 33890.5 hPa SW 2.6 km/h 10.3 km/h 96 % 12.7 mm
01:12 -10.8 °C -11.2 °C 33890.5 hPa Calm   10.3 km/h 96 % 12.7 mm
01:17 -10.9 °C -11.2 °C 33900.6 hPa SW 5.1 km/h 10.3 km/h 96 % 12.7 mm
01:22 -10.9 °C -11.2 °C 33900.6 hPa Calm   10.3 km/h 96 % 12.7 mm
01:32 -10.8 °C -11.1 °C 33900.6 hPa Calm   5.1 km/h 97 % 12.7 mm
01:37 -10.8 °C -11.1 °C 33900.6 hPa Calm   5.1 km/h 97 % 12.7 mm
01:42 -10.7 °C -11 °C 33890.5 hPa Calm   5.1 km/h 97 % 12.7 mm
01:47 -10.7 °C -11 °C 33890.5 hPa Calm   5.1 km/h 97 % 12.7 mm
01:52 -10.7 °C -10.9 °C 33890.5 hPa Calm   5.1 km/h 97 % 12.7 mm
02:02 -10.7 °C -10.9 °C 33890.5 hPa Calm   5.1 km/h 97 % 12.7 mm
02:07 -10.7 °C -10.9 °C 33890.5 hPa Calm   5.1 km/h 97 % 20.32 mm
02:12 -10.7 °C -10.9 °C 33890.5 hPa Calm   2.6 km/h 97 % 20.32 mm
02:17 -10.7 °C -10.9 °C 33880.3 hPa Calm   5.1 km/h 97 % 20.32 mm
02:22 -10.7 °C -10.9 °C 33880.3 hPa Calm   5.1 km/h 97 % 20.32 mm
02:32 -10.7 °C -10.9 °C 33880.3 hPa Calm   2.6 km/h 97 % 20.32 mm
02:37 -10.7 °C -10.9 °C 33880.3 hPa Calm   7.7 km/h 97 % 25.4 mm
02:42 -10.7 °C -10.9 °C 33880.3 hPa Calm   7.7 km/h 97 % 12.7 mm
02:52 -10.8 °C -11.1 °C 33880.3 hPa Calm   2.6 km/h 96 % 12.7 mm
02:57 -10.8 °C -11.1 °C 33880.3 hPa Calm   2.6 km/h 97 % 12.7 mm
03:02 -10.9 °C -11.2 °C 33880.3 hPa Calm   2.6 km/h 97 % 12.7 mm
03:07 -10.9 °C -11.2 °C 33880.3 hPa Calm   2.6 km/h 97 % 7.62 mm
03:12 -10.8 °C -11.1 °C 33866.8 hPa Calm   2.6 km/h 97 % 7.62 mm
03:17 -10.9 °C -11.2 °C 33866.8 hPa Calm   2.6 km/h 97 % 12.7 mm
03:22 -10.9 °C -11.2 °C 33856.6 hPa Calm   2.6 km/h 97 % 12.7 mm
03:32 -10.9 °C -11.2 °C 33856.6 hPa Calm   7.7 km/h 97 % 12.7 mm
03:37 -10.9 °C -11.2 °C 33856.6 hPa Calm   7.7 km/h 97 % 12.7 mm
03:42 -10.9 °C -11.2 °C 33856.6 hPa Calm   7.7 km/h 97 % 12.7 mm
03:57 -10.9 °C -11.2 °C 33856.6 hPa Calm   7.7 km/h 97 % 12.7 mm
04:02 -10.9 °C -11.2 °C 33856.6 hPa WSW 7.7 km/h 7.7 km/h 97 % 12.7 mm
04:07 -11 °C -11.3 °C 33856.6 hPa WSW 2.6 km/h 7.7 km/h 97 % 12.7 mm
04:17 -11.1 °C -11.4 °C 33843.1 hPa SW 2.6 km/h 10.3 km/h 96 % 7.62 mm
04:22 -11.2 °C -11.5 °C 33843.1 hPa Calm   12.9 km/h 96 % 7.62 mm
04:32 -11.3 °C -11.6 °C 33843.1 hPa Calm   12.9 km/h 96 % 0 mm
04:42 -11.4 °C -11.8 °C 33843.1 hPa WSW 5.1 km/h 5.1 km/h 96 % 0 mm
04:52 -11.5 °C -11.8 °C 33843.1 hPa Calm   5.1 km/h 97 % 0 mm
04:57 -11.5 °C -11.8 °C 33843.1 hPa Calm   5.1 km/h 97 % 0 mm
05:02 -11.5 °C -11.8 °C 33856.6 hPa Calm   5.1 km/h 97 % 0 mm
05:07 -11.5 °C -11.8 °C 33856.6 hPa Calm   2.6 km/h 97 % 0 mm
05:17 -11.4 °C -11.7 °C 33856.6 hPa Calm     97 % 0 mm
05:22 -11.4 °C -11.7 °C 33856.6 hPa Calm     97 % 0 mm
05:32 -11.4 °C -11.7 °C 33856.6 hPa Calm     97 % 0 mm
05:37 -11.4 °C -11.7 °C 33856.6 hPa Calm     97 % 0 mm
05:42 -11.4 °C -11.7 °C 33856.6 hPa Calm     97 % 0 mm
05:47 -11.4 °C -11.7 °C 33856.6 hPa Calm     97 % 0 mm
05:52 -11.4 °C -11.7 °C 33856.6 hPa Calm     97 % 0 mm
05:57 -11.4 °C -11.7 °C 33856.6 hPa SW 2.6 km/h   97 % 0 mm
06:02 -11.4 °C -11.7 °C 33856.6 hPa Calm     97 % 0 mm
06:12 -11.4 °C -11.7 °C 33856.6 hPa Calm   7.7 km/h 97 % 0 mm
06:17 -11.4 °C -11.7 °C 33856.6 hPa Calm   7.7 km/h 97 % 0 mm
06:22 -11.4 °C -11.7 °C 33856.6 hPa Calm   7.7 km/h 97 % 0 mm
06:27 -11.4 °C -11.7 °C 33856.6 hPa Calm   7.7 km/h 97 % 0 mm
06:32 -11.4 °C -11.7 °C 33856.6 hPa West 2.6 km/h 10.3 km/h 97 % 7.62 mm
06:37 -11.4 °C -11.7 °C 33866.8 hPa Calm   10.3 km/h 97 % 7.62 mm
06:42 -11.4 °C -11.7 °C 33866.8 hPa Calm   10.3 km/h 97 % 12.7 mm
06:47 -11.4 °C -11.7 °C 33866.8 hPa Calm   10.3 km/h 97 % 12.7 mm
06:52 -11.3 °C -11.6 °C 33866.8 hPa Calm   10.3 km/h 97 % 12.7 mm
06:57 -11.3 °C -11.6 °C 33866.8 hPa WSW 2.6 km/h 7.7 km/h 97 % 12.7 mm
07:07 -11.2 °C -11.5 °C 33866.8 hPa Calm   12.9 km/h 97 % 12.7 mm
07:12 -11.2 °C -11.4 °C 33866.8 hPa West 2.6 km/h 12.9 km/h 97 % 12.7 mm
07:17 -11.1 °C -11.4 °C 33866.8 hPa WSW 2.6 km/h 12.9 km/h 97 % 12.7 mm
07:22 -11.2 °C -11.4 °C 33866.8 hPa WSW 10.3 km/h 10.3 km/h 97 % 12.7 mm
07:32 -11.3 °C -11.7 °C 33880.3 hPa WSW 2.6 km/h 20.8 km/h 96 % 25.4 mm
07:37 -11.4 °C -11.8 °C 33880.3 hPa SW 2.6 km/h 20.8 km/h 96 % 58.42 mm
07:42 -11.4 °C -11.8 °C 33880.3 hPa SW 2.6 km/h 20.8 km/h 96 % 58.42 mm
07:47 -11.4 °C -11.7 °C 33866.8 hPa Calm   15.6 km/h 97 % 91.44 mm
07:52 -11.3 °C -11.6 °C 33880.3 hPa Calm   15.6 km/h 97 % 91.44 mm
07:57 -11.4 °C -11.8 °C 33880.3 hPa West 10.3 km/h 10.3 km/h 96 % 134.62 mm
08:02 -11.5 °C -11.8 °C 33880.3 hPa Calm   12.9 km/h 96 % 134.62 mm
08:07 -11.4 °C -11.7 °C 33880.3 hPa Calm   12.9 km/h 97 % 160.02 mm
08:12 -11.3 °C -11.6 °C 33880.3 hPa WSW 2.6 km/h 12.9 km/h 97 % 160.02 mm
08:17 -11.3 °C -11.6 °C 33880.3 hPa WSW 12.9 km/h 12.9 km/h 97 % 180.34 mm
08:22 -11.3 °C -11.6 °C 33880.3 hPa WSW 12.9 km/h 12.9 km/h 97 % 180.34 mm
08:32 -11.2 °C -11.4 °C 33880.3 hPa SW 10.3 km/h 15.6 km/h 97 % 175.26 mm
08:37 -11.1 °C -11.3 °C 33880.3 hPa SW 5.1 km/h 12.9 km/h 97 % 142.24 mm
08:42 -11 °C -11.3 °C 33880.3 hPa WSW 2.6 km/h 15.6 km/h 97 % 142.24 mm
08:47 -11 °C -11.3 °C 33880.3 hPa WSW 5.1 km/h 15.6 km/h 97 % 109.22 mm
08:52 -10.9 °C -11.2 °C 33880.3 hPa SW 5.1 km/h 18.2 km/h 97 % 109.22 mm
08:57 -10.8 °C -11.1 °C 33880.3 hPa West 2.6 km/h 23.3 km/h 97 % 71.12 mm
09:02 -10.6 °C -10.9 °C 33880.3 hPa SSE 10.3 km/h 23.3 km/h 97 % 71.12 mm
09:12 -10.4 °C -10.7 °C 33880.3 hPa SW 5.1 km/h 18.2 km/h 96 % 38.1 mm
09:17 -10.2 °C -10.7 °C 33880.3 hPa WSW 5.1 km/h 18.2 km/h 95 % 20.32 mm
09:22 -10.2 °C -10.7 °C 33880.3 hPa SW 2.6 km/h 15.6 km/h 94 % 20.32 mm
09:27 -10.2 °C -10.8 °C 33880.3 hPa WSW 5.1 km/h 18.2 km/h 93 % 12.7 mm
09:32 -10.2 °C -10.8 °C 33880.3 hPa WSW 5.1 km/h 23.3 km/h 93 % 12.7 mm
09:37 -9.9 °C -10.6 °C 33880.3 hPa West 7.7 km/h 23.3 km/h 93 % 7.62 mm
09:42 -9.8 °C -10.5 °C 33890.5 hPa WSW 7.7 km/h 23.3 km/h 92 % 7.62 mm
09:47 -9.6 °C -10.3 °C 33890.5 hPa WSW 5.1 km/h 20.8 km/h 92 % 0 mm
09:52 -9.4 °C -10.1 °C 33890.5 hPa SW 5.1 km/h 20.8 km/h 92 % 0 mm
09:57 -9.4 °C -10.5 °C 33890.5 hPa West 7.7 km/h 20.8 km/h 88 % 0 mm
10:02 -9.4 °C -10.4 °C 33890.5 hPa WSW 5.1 km/h 18.2 km/h 89 % 0 mm
10:12 -9.7 °C -10.7 °C 33890.5 hPa SW 2.6 km/h 15.6 km/h 89 % 0 mm
10:17 -9.8 °C -10.7 °C 33890.5 hPa WSW 2.6 km/h 15.6 km/h 90 % 0 mm
10:22 -9.9 °C -10.7 °C 33890.5 hPa Calm   15.6 km/h 91 % 0 mm
10:32 -9.9 °C -10.7 °C 33890.5 hPa Calm   10.3 km/h 91 % 0 mm
10:37 -9.9 °C -10.7 °C 33890.5 hPa SW 5.1 km/h 12.9 km/h 91 % 0 mm
10:42 -9.9 °C -10.7 °C 33890.5 hPa SW 15.6 km/h 15.6 km/h 91 % 7.62 mm
10:47 -9.9 °C -10.7 °C 33900.6 hPa West 7.7 km/h 20.8 km/h 91 % 7.62 mm
10:52 -9.8 °C -10.5 °C 33900.6 hPa West 5.1 km/h 20.8 km/h 92 % 7.62 mm
11:02 -9.6 °C -10.4 °C 33900.6 hPa WSW 5.1 km/h 20.8 km/h 91 % 7.62 mm
11:12 -9.4 °C -10.3 °C 33900.6 hPa WSW 2.6 km/h 18.2 km/h 90 % 7.62 mm
11:17 -9.2 °C -10.1 °C 33900.6 hPa WSW 7.7 km/h 18.2 km/h 90 % 7.62 mm
11:22 -8.9 °C -10 °C 33900.6 hPa WSW 5.1 km/h 20.8 km/h 88 % 7.62 mm
11:32 -8.6 °C -10.1 °C 33900.6 hPa WSW 2.6 km/h 20.8 km/h 84 % 7.62 mm
11:37 -9 °C -10.3 °C 33900.6 hPa SW 2.6 km/h 18.2 km/h 86 % 12.7 mm
11:42 -9.1 °C -10.3 °C 33900.6 hPa SSW 5.1 km/h 15.6 km/h 87 % 7.62 mm
11:47 -9.3 °C -10.5 °C 33914.2 hPa West 5.1 km/h 15.6 km/h 87 % 7.62 mm
11:52 -9.6 °C -10.7 °C 33914.2 hPa WSW 2.6 km/h 15.6 km/h 88 % 7.62 mm
11:57 -9.8 °C -10.9 °C 33914.2 hPa WSW 5.1 km/h 15.6 km/h 87 % 7.62 mm
12:02 -9.9 °C -11 °C 33914.2 hPa Calm   15.6 km/h 88 % 7.62 mm
12:12 -10.1 °C -11.1 °C 33924.3 hPa Calm   15.6 km/h 89 % 7.62 mm
12:17 -10.1 °C -10.9 °C 33924.3 hPa WSW 5.1 km/h 15.6 km/h 90 % 12.7 mm
12:22 -9.6 °C -10.2 °C 33914.2 hPa WSW 2.6 km/h 15.6 km/h 93 % 12.7 mm
12:32 -8.9 °C -10.2 °C 33914.2 hPa WSW 2.6 km/h 12.9 km/h 87 % 12.7 mm
12:42 -8.1 °C -10.1 °C 33914.2 hPa West 5.1 km/h 18.2 km/h 80 % 7.62 mm
12:47 -8 °C -9.6 °C 33914.2 hPa WSW 2.6 km/h 18.2 km/h 83 % 7.62 mm
12:52 -8.2 °C -10.2 °C 33914.2 hPa WSW 7.7 km/h 18.2 km/h 80 % 7.62 mm
12:57 -8.1 °C -9.8 °C 33914.2 hPa WSW 2.6 km/h 18.2 km/h 82 % 7.62 mm
13:02 -7.8 °C -9.6 °C 33914.2 hPa SW 5.1 km/h 18.2 km/h 82 % 7.62 mm
13:12 -7.7 °C -10.1 °C 33914.2 hPa SW 7.7 km/h 18.2 km/h 76 % 7.62 mm
13:17 -7.6 °C -10.6 °C 33914.2 hPa West 2.6 km/h 18.2 km/h 71 % 0 mm
13:32 -7.7 °C -10.5 °C 33914.2 hPa SW 5.1 km/h 28.5 km/h 72 % 0 mm
13:37 -7.7 °C -10.3 °C 33914.2 hPa WSW 10.3 km/h 28.5 km/h 74 % 0 mm
13:42 -7.5 °C -10.2 °C 33914.2 hPa SSW 2.6 km/h 23.3 km/h 73 % 0 mm
13:47 -7.4 °C -10.3 °C 33914.2 hPa SW 12.9 km/h 15.6 km/h 72 % 0 mm
13:52 -7.2 °C -10 °C 33914.2 hPa SW 5.1 km/h 15.6 km/h 73 % 0 mm
13:57 -7.3 °C -10.3 °C 33914.2 hPa East 7.7 km/h 15.6 km/h 71 % 0 mm
14:02 -7.2 °C -10.2 °C 33900.6 hPa Calm   12.9 km/h 71 % 0 mm
14:12 -6.9 °C -9.9 °C 33900.6 hPa SW 10.3 km/h 15.6 km/h 71 % 0 mm
14:17 -6.8 °C -9.9 °C 33900.6 hPa West 2.6 km/h 15.6 km/h 70 % 0 mm
14:22 -6.6 °C -9.6 °C 33900.6 hPa WSW 5.1 km/h 18.2 km/h 71 % 0 mm
14:27 -6.5 °C -10.2 °C 33900.6 hPa West 10.3 km/h 18.2 km/h 66 % 0 mm
14:32 -6.6 °C -9.9 °C 33900.6 hPa WSW 5.1 km/h 20.8 km/h 69 % 0 mm
14:37 -6.4 °C -9.7 °C 33900.6 hPa SW 7.7 km/h 20.8 km/h 69 % 0 mm
14:42 -6.3 °C -10.2 °C 33900.6 hPa WSW 12.9 km/h 20.8 km/h 64 % 0 mm
14:47 -6.2 °C -10.3 °C 33900.6 hPa SW 5.1 km/h 18.2 km/h 63 % 0 mm
14:52 -6.5 °C -10.7 °C 33900.6 hPa SW 7.7 km/h 20.8 km/h 62 % 0 mm
14:57 -6.9 °C -10.7 °C 33900.6 hPa SW 5.1 km/h 20.8 km/h 65 % 0 mm
15:02 -7.2 °C -10.7 °C 33900.6 hPa SW 2.6 km/h 20.8 km/h 67 % 0 mm
15:07 -7.1 °C -10.1 °C 33900.6 hPa WSW 7.7 km/h 18.2 km/h 71 % 0 mm
15:12 -7.1 °C -10.6 °C 33900.6 hPa WSW 2.6 km/h 18.2 km/h 67 % 0 mm
15:17 -7.1 °C -10.1 °C 33900.6 hPa WSW 15.6 km/h 15.6 km/h 71 % 0 mm
15:22 -7.1 °C -10.2 °C 33900.6 hPa SW 7.7 km/h 15.6 km/h 70 % 0 mm
15:32 -6.6 °C -11 °C 33890.5 hPa SW 2.6 km/h 15.6 km/h 60 % 0 mm
15:37 -6.3 °C -10.5 °C 33900.6 hPa SE 5.1 km/h 12.9 km/h 62 % 0 mm
15:42 -6.2 °C -10.8 °C 33900.6 hPa Calm   12.9 km/h 59 % 0 mm
15:47 -6.1 °C -11.1 °C 33890.5 hPa Calm   10.3 km/h 56 % 0 mm
15:52 -6.2 °C -10.8 °C 33890.5 hPa Calm   15.6 km/h 59 % 0 mm
16:02 -6 °C -10.6 °C 33890.5 hPa Calm   15.6 km/h 59 % 0 mm
16:07 -5.8 °C -10.9 °C 33890.5 hPa SW 5.1 km/h 12.9 km/h 56 % 0 mm
16:12 -5.9 °C -10.9 °C 33890.5 hPa WSW 2.6 km/h 12.9 km/h 56 % 0 mm
16:17 -6 °C -10.6 °C 33880.3 hPa WSW 10.3 km/h 12.9 km/h 59 % 0 mm
16:22 -5.9 °C -10.7 °C 33880.3 hPa Calm   12.9 km/h 58 % 0 mm
16:32 -5.7 °C -10.4 °C 33880.3 hPa West 5.1 km/h 10.3 km/h 58 % 0 mm
16:42 -5.9 °C -10.8 °C 33880.3 hPa SSW 5.1 km/h 12.9 km/h 57 % 0 mm
16:52 -6.5 °C -11.2 °C 33880.3 hPa Calm   12.9 km/h 58 % 0 mm
16:57 -6.3 °C -10.7 °C 33880.3 hPa Calm   12.9 km/h 60 % 0 mm
17:02 -6.2 °C -10.4 °C 33880.3 hPa Calm   10.3 km/h 62 % 0 mm
17:07 -6.6 °C -11 °C 33880.3 hPa Calm   12.9 km/h 60 % 0 mm
17:12 -6.7 °C -11.6 °C 33880.3 hPa Calm   12.9 km/h 57 % 0 mm
17:17 -6.4 °C -11.1 °C 33880.3 hPa Calm   12.9 km/h 59 % 0 mm
17:22 -6.5 °C -11.2 °C 33880.3 hPa Calm   7.7 km/h 58 % 0 mm
17:32 -6.9 °C -10.8 °C 33880.3 hPa Calm   7.7 km/h 64 % 0 mm
17:37 -7 °C -10.7 °C 33880.3 hPa Calm   5.1 km/h 65 % 0 mm
17:42 -7.1 °C -10.4 °C 33880.3 hPa Calm   2.6 km/h 68 % 0 mm
17:52 -7.2 °C -10.3 °C 33880.3 hPa Calm   7.7 km/h 70 % 0 mm
17:57 -7.2 °C -10.4 °C 33880.3 hPa Calm   7.7 km/h 69 % 0 mm
18:02 -7.2 °C -9.9 °C 33880.3 hPa Calm   7.7 km/h 73 % 0 mm
18:07 -7.3 °C -10.4 °C 33880.3 hPa Calm   2.6 km/h 70 % 0 mm
18:12 -7.4 °C -10.6 °C 33880.3 hPa Calm   5.1 km/h 70 % 0 mm
18:17 -7.8 °C -10.2 °C 33890.5 hPa West 10.3 km/h 10.3 km/h 76 % 0 mm
18:22 -8.3 °C -10.2 °C 33890.5 hPa Calm   12.9 km/h 80 % 0 mm
18:27 -8.7 °C -10.4 °C 33890.5 hPa Calm   12.9 km/h 82 % 7.62 mm
18:32 -8.8 °C -10.6 °C 33890.5 hPa Calm   12.9 km/h 82 % 7.62 mm
18:47 -9 °C -10.3 °C 33880.3 hPa Calm   2.6 km/h 86 % 12.7 mm
18:52 -9.1 °C -10.3 °C 33880.3 hPa Calm   2.6 km/h 87 % 12.7 mm
19:02 -9.1 °C -10.3 °C 33880.3 hPa Calm   2.6 km/h 87 % 12.7 mm
19:07 -9.1 °C -10.3 °C 33880.3 hPa Calm   2.6 km/h 87 % 12.7 mm
19:12 -9.1 °C -10.2 °C 33880.3 hPa Calm   2.6 km/h 88 % 12.7 mm
19:17 -9.1 °C -10.3 °C 33880.3 hPa Calm   2.6 km/h 87 % 12.7 mm
19:22 -9.1 °C -10.6 °C 33880.3 hPa Calm   2.6 km/h 84 % 12.7 mm
19:27 -9 °C -10.3 °C 33880.3 hPa Calm   2.6 km/h 86 % 7.62 mm
19:37 -8.9 °C -10.2 °C 33880.3 hPa Calm   2.6 km/h 87 % 7.62 mm
19:42 -8.9 °C -10.2 °C 33880.3 hPa Calm   2.6 km/h 87 % 0 mm
19:47 -8.8 °C -9.9 °C 33880.3 hPa Calm   2.6 km/h 88 % 0 mm
19:52 -8.8 °C -9.8 °C 33880.3 hPa Calm   2.6 km/h 89 % 0 mm
19:57 -8.8 °C -9.9 °C 33880.3 hPa Calm     88 % 0 mm
20:02 -8.9 °C -10.1 °C 33880.3 hPa Calm   2.6 km/h 88 % 0 mm
20:22 -9.2 °C -10.4 °C 33890.5 hPa Calm   2.6 km/h 86 % 0 mm
20:27 -9.3 °C -10.6 °C 33890.5 hPa Calm   2.6 km/h 86 % 0 mm
20:32 -9.3 °C -10.6 °C 33890.5 hPa Calm   2.6 km/h 86 % 0 mm
20:42 -9.5 °C -10.7 °C 33890.5 hPa Calm   2.6 km/h 87 % 0 mm
20:57 -9.6 °C -11 °C 33890.5 hPa WSW 2.6 km/h 2.6 km/h 85 % 0 mm
21:02 -9.6 °C -11 °C 33900.6 hPa Calm   5.1 km/h 85 % 0 mm
21:12 -9.6 °C -11.1 °C 33890.5 hPa Calm   5.1 km/h 84 % 0 mm
21:17 -9.6 °C -11.1 °C 33890.5 hPa Calm   5.1 km/h 84 % 0 mm
21:27 -9.7 °C -10.7 °C 33900.6 hPa Calm   7.7 km/h 89 % 0 mm
21:32 -9.7 °C -10.5 °C 33900.6 hPa Calm   2.6 km/h 91 % 0 mm
21:37 -9.8 °C -10.5 °C 33900.6 hPa Calm   2.6 km/h 92 % 0 mm
21:42 -9.8 °C -10.6 °C 33900.6 hPa Calm   5.1 km/h 92 % 0 mm
21:47 -9.9 °C -10.5 °C 33900.6 hPa Calm   5.1 km/h 93 % 0 mm
21:52 -9.9 °C -10.5 °C 33900.6 hPa Calm   5.1 km/h 93 % 0 mm
21:57 -9.9 °C -10.5 °C 33900.6 hPa Calm   2.6 km/h 93 % 0 mm
22:02 -9.9 °C -10.5 °C 33900.6 hPa Calm   2.6 km/h 94 % 0 mm
22:12 -10 °C -10.6 °C 33900.6 hPa Calm   5.1 km/h 94 % 0 mm
22:22 -10.1 °C -10.6 °C 33900.6 hPa Calm     94 % 0 mm
22:32 -10.2 °C -10.7 °C 33914.2 hPa Calm     94 % 0 mm
22:37 -10.2 °C -10.7 °C 33914.2 hPa Calm     94 % 0 mm
22:42 -10.3 °C -10.8 °C 33900.6 hPa Calm     94 % 0 mm
22:47 -10.4 °C -10.9 °C 33900.6 hPa Calm     94 % 0 mm
22:52 -10.5 °C -11 °C 33900.6 hPa Calm     94 % 0 mm
23:02 -10.7 °C -11.2 °C 33900.6 hPa Calm     94 % 0 mm
23:12 -10.7 °C -11.1 °C 33914.2 hPa Calm   2.6 km/h 95 % 0 mm
23:22 -10.7 °C -11.2 °C 33900.6 hPa SW 2.6 km/h 5.1 km/h 95 % 0 mm
23:32 -10.7 °C -11.2 °C 33900.6 hPa Calm   5.1 km/h 95 % 0 mm
23:37 -10.7 °C -11.1 °C 33900.6 hPa Calm   5.1 km/h 95 % 0 mm
23:42 -10.7 °C -11.1 °C 33900.6 hPa Calm   5.1 km/h 95 % 0 mm
23:47 -10.7 °C -11.2 °C 33900.6 hPa Calm   5.1 km/h 95 % 0 mm
23:52 -10.7 °C -11.2 °C 33914.2 hPa Calm   2.6 km/h 95 % 0 mm
Meteo18
Compliments of Weather Underground - 4 mb

Script developed by  Jim McMurry - jmcmurry@mwt.net Adapted for the template by  Wim van der Kuil - Leuven-Template.eu

You find our weather info also at:

European Weather Network

Weather Underground

Equipment we use:

Weather-station
Davis Vue

Weather-program
Meteobridge

Weather-server
Raspberry PI 2 B+

Provider
1 and 1

Davis Vue

Meteobridge

Raspberry PI 2 B+

1 and 1